Terminal Aerodrome Forecast
Issued by NWS Shreveport, LA

Home | Current Version | Previous Version | Text Only | Print | Product List | Glossary On
Versions: 1 2 3 4 5 6 7 8 9 10 11 12 13 14 15 16 17 18 19 20
000
FTUS44 KSHV 302320
TAFSHV
TAF
KSHV 302320Z 3100/3124 17003KT P6SM VCSH SCT040 SCT150 BKN250
     FM310300 VRB03KT P6SM FEW050 SCT150 SCT250
      TEMPO 3110/3113 6SM BR BKN020
     FM311500 17005KT P6SM SCT035 SCT250=

USA.gov is the U.S. government's official web portal to all federal, state and local government web resources and services.